Time;durP1;ratioP1;P1;durP2;ratioP2;P2;SDS_P1;SDS_P2;PMS_P1;PMS_P2;Temp;Humidity;BMP_temperature;BMP_pressure;BME280_temperature;BME280_humidity;BME280_pressure;Samples;Min_cycle;Max_cycle;Signal;HPM_P1;HPM_P2
2023/12/02 00:01:26;;;;;;;;;;;;;;;12.26;33.41;96850.09;5088406;28;19916;-82
2023/12/02 00:03:52;;;;;;;;;;;;;;;12.74;32.63;96865.25;5087655;28;19936;-82
2023/12/02 00:06:18;;;;;;;;;;;;;;;13.43;31.06;96871.34;5084214;28;19968;-83
2023/12/02 00:08:44;;;;;;;;;;;;;;;14.57;29.49;96880.31;5072912;28;19921;-82
2023/12/02 00:11:10;;;;;;;;;;;;;;;14.81;28.69;96882.22;5077628;28;19920;-82
2023/12/02 00:13:37;;;;;;;;;;;;;;;13.51;30.64;96888.69;5073635;28;19970;-82
2023/12/02 00:16:04;;;;;;;;;;;;;;;12.20;33.16;96877.19;5075601;28;20387;-82
2023/12/02 00:18:30;;;;;;;;;;;;;;;13.21;31.54;96894.53;5073077;28;19924;-82
2023/12/02 00:20:56;;;;;;;;;;;;;;;11.74;34.14;96885.13;5079913;28;20265;-82
2023/12/02 00:23:22;;;;;;;;;;;;;;;10.55;36.56;96883.88;5083802;28;19920;-82
2023/12/02 00:25:48;;;;;;;;;;;;;;;9.79;37.86;96887.88;5087461;28;19927;-82
2023/12/02 00:28:14;;;;;;;;;;;;;;;8.76;40.44;96874.34;5075583;28;19967;-82
2023/12/02 00:30:40;;;;;;;;;;;;;;;8.98;39.57;96871.63;5077873;28;19921;-82
2023/12/02 00:33:06;;;;;;;;;;;;;;;9.14;39.47;96863.34;5081343;28;20011;-82
2023/12/02 00:35:32;;;;;;;;;;;;;;;9.63;38.97;96860.63;5084372;28;20329;-82
2023/12/02 00:37:58;;;;;;;;;;;;;;;10.25;37.66;96854.50;5091516;28;19920;-82
2023/12/02 00:40:25;;;;;;;;;;;;;;;9.88;37.86;96845.34;5090780;28;20291;-81
2023/12/02 00:42:51;;;;;;;;;;;;;;;9.99;38.12;96842.75;5097179;28;20019;-82
2023/12/02 00:45:17;;;;;;;;;;;;;;;8.91;40.31;96855.09;5089390;28;19928;-81
2023/12/02 00:47:43;;;;;;;;;;;;;;;11.86;34.45;96850.22;5084102;28;20380;-82
2023/12/02 00:50:10;;;;;;;;;;;;;;;12.39;33.31;96849.38;5095474;28;20351;-82
2023/12/02 00:52:36;;;;;;;;;;;;;;;12.68;33.01;96831.00;5078329;28;19931;-82
2023/12/02 00:55:02;;;;;;;;;;;;;;;11.99;33.94;96816.56;5077338;28;19968;-82
2023/12/02 00:57:28;;;;;;;;;;;;;;;12.67;32.72;96829.41;5087982;28;19942;-81
2023/12/02 00:59:54;;;;;;;;;;;;;;;13.12;31.61;96826.03;5096628;28;19927;-81
2023/12/02 01:02:20;;;;;;;;;;;;;;;12.95;32.44;96835.00;5088415;28;19943;-82
2023/12/02 01:04:46;;;;;;;;;;;;;;;14.09;30.13;96841.38;5081781;28;19966;-82
2023/12/02 01:07:12;;;;;;;;;;;;;;;15.06;28.63;96839.44;5093649;28;19920;-82
2023/12/02 01:09:38;;;;;;;;;;;;;;;16.63;26.43;96840.47;5096750;28;19916;-82
2023/12/02 01:12:05;;;;;;;;;;;;;;;15.66;27.64;96832.75;5081840;28;20337;-82
2023/12/02 01:14:31;;;;;;;;;;;;;;;14.43;29.34;96840.53;5080976;28;19921;-82
2023/12/02 01:16:57;;;;;;;;;;;;;;;14.71;28.86;96844.34;5082953;28;19973;-81
2023/12/02 01:19:23;;;;;;;;;;;;;;;16.13;26.95;96839.41;5080630;28;20305;-82
2023/12/02 01:21:49;;;;;;;;;;;;;;;15.58;27.44;96848.59;5091922;28;19924;-82
2023/12/02 01:24:16;;;;;;;;;;;;;;;15.97;26.97;96828.88;5069510;28;19950;-81
2023/12/02 01:26:43;;;;;;;;;;;;;;;14.59;28.65;96844.78;5092604;28;19928;-82
2023/12/02 01:29:09;;;;;;;;;;;;;;;14.10;29.46;96846.50;5087277;28;19965;-82
2023/12/02 01:31:35;;;;;;;;;;;;;;;11.86;33.30;96836.47;5081397;28;19963;-82
2023/12/02 01:34:01;;;;;;;;;;;;;;;11.44;34.56;96837.72;5086275;28;20327;-81
2023/12/02 01:36:27;;;;;;;;;;;;;;;11.89;33.53;96842.03;5089739;28;20477;-81
2023/12/02 01:38:53;;;;;;;;;;;;;;;11.08;35.15;96838.59;5083368;28;20011;-81
2023/12/02 01:41:19;;;;;;;;;;;;;;;13.14;31.61;96839.41;5083489;28;19920;-81
2023/12/02 01:43:45;;;;;;;;;;;;;;;12.39;32.69;96834.84;5083028;28;19921;-81
2023/12/02 01:46:15;;;;;;;;;;;;;;;11.55;34.17;96811.09;5083261;28;19923;-81
2023/12/02 01:48:41;;;;;;;;;;;;;;;11.20;34.87;96790.81;5084506;28;19963;-81
2023/12/02 01:51:08;;;;;;;;;;;;;;;11.91;33.59;96787.41;5088463;28;20018;-81
2023/12/02 01:53:34;;;;;;;;;;;;;;;12.19;32.77;96800.53;5084543;28;19959;-80
2023/12/02 01:56:00;;;;;;;;;;;;;;;13.08;31.33;96805.97;5086481;28;19959;-81
2023/12/02 01:58:26;;;;;;;;;;;;;;;13.77;30.37;96805.56;5078915;28;19981;-81
2023/12/02 02:00:52;;;;;;;;;;;;;;;15.57;27.41;96788.94;5094183;28;19926;-81
2023/12/02 02:03:18;;;;;;;;;;;;;;;14.98;28.23;96817.78;5088188;28;20333;-81
2023/12/02 02:05:45;;;;;;;;;;;;;;;13.22;30.78;96827.22;5087056;28;20019;-81
2023/12/02 02:08:11;;;;;;;;;;;;;;;12.75;32.00;96822.78;5092599;28;19924;-81
2023/12/02 02:10:37;;;;;;;;;;;;;;;12.47;32.53;96806.94;5089266;28;19920;-81
2023/12/02 02:13:03;;;;;;;;;;;;;;;12.61;32.73;96797.94;5088054;28;20393;-81
2023/12/02 02:15:29;;;;;;;;;;;;;;;12.09;33.38;96793.81;5085400;28;19920;-81
2023/12/02 02:17:55;;;;;;;;;;;;;;;14.18;30.03;96787.34;5087225;28;19916;-81
2023/12/02 02:20:21;;;;;;;;;;;;;;;12.58;32.39;96778.69;5074339;28;19931;-81
2023/12/02 02:22:47;;;;;;;;;;;;;;;13.96;29.94;96769.25;5081917;28;19970;-81
2023/12/02 02:25:14;;;;;;;;;;;;;;;13.57;30.41;96763.84;5079816;28;20023;-82
2023/12/02 02:27:40;;;;;;;;;;;;;;;13.49;30.89;96759.50;5092858;28;20022;-81
2023/12/02 02:30:06;;;;;;;;;;;;;;;12.78;31.49;96771.63;5087311;28;19927;-81
2023/12/02 02:32:32;;;;;;;;;;;;;;;11.82;33.46;96772.44;5073676;28;19920;-81
2023/12/02 02:34:59;;;;;;;;;;;;;;;11.88;33.18;96757.19;5074486;28;19916;-81
2023/12/02 02:37:25;;;;;;;;;;;;;;;10.75;34.91;96753.53;5080336;28;20350;-81
2023/12/02 02:39:51;;;;;;;;;;;;;;;11.23;34.49;96755.13;5074086;28;20291;-81
2023/12/02 02:42:17;;;;;;;;;;;;;;;14.33;29.32;96747.47;5089294;28;19978;-81
2023/12/02 02:44:43;;;;;;;;;;;;;;;13.00;31.11;96752.00;5079168;28;20382;-81
2023/12/02 02:47:09;;;;;;;;;;;;;;;13.70;30.14;96744.88;5075303;28;19927;-81
2023/12/02 02:49:35;;;;;;;;;;;;;;;13.27;30.95;96749.69;5085313;28;20394;-81
2023/12/02 02:52:01;;;;;;;;;;;;;;;13.77;30.18;96748.41;5092136;28;19925;-81
2023/12/02 02:54:27;;;;;;;;;;;;;;;12.78;31.61;96760.63;5094656;28;19923;-81
2023/12/02 02:56:54;;;;;;;;;;;;;;;14.16;29.46;96751.09;5108171;28;19923;-81
2023/12/02 02:59:20;;;;;;;;;;;;;;;14.82;28.23;96743.66;5093285;28;19920;-81
2023/12/02 03:01:47;;;;;;;;;;;;;;;14.99;27.99;96740.00;5071480;28;19975;-81
2023/12/02 03:04:13;;;;;;;;;;;;;;;13.15;31.08;96733.53;5086491;28;20015;-81
2023/12/02 03:06:40;;;;;;;;;;;;;;;12.30;32.42;96738.06;5090647;28;19916;-81
2023/12/02 03:09:07;;;;;;;;;;;;;;;12.74;31.55;96727.56;5087500;28;19927;-81
2023/12/02 03:11:33;;;;;;;;;;;;;;;11.48;34.09;96738.84;5101462;28;19916;-81
2023/12/02 03:13:59;;;;;;;;;;;;;;;10.87;34.92;96762.31;5093771;28;19998;-81
2023/12/02 03:16:25;;;;;;;;;;;;;;;11.54;34.08;96776.56;5098547;28;20296;-82
2023/12/02 03:18:51;;;;;;;;;;;;;;;12.45;32.48;96772.72;5103595;28;19965;-81
2023/12/02 03:21:17;;;;;;;;;;;;;;;12.38;32.40;96762.50;5082930;28;20417;-81
2023/12/02 03:23:43;;;;;;;;;;;;;;;12.07;33.02;96765.09;5100724;28;19920;-81
2023/12/02 03:26:11;;;;;;;;;;;;;;;12.57;32.20;96755.88;5113809;28;20264;-81
2023/12/02 03:28:37;;;;;;;;;;;;;;;12.25;32.27;96758.50;5097799;28;20010;-81
2023/12/02 03:31:04;;;;;;;;;;;;;;;12.70;31.46;96759.81;5097294;28;19927;-81
2023/12/02 03:33:30;;;;;;;;;;;;;;;13.22;30.55;96757.53;5077111;28;19921;-81
2023/12/02 03:35:56;;;;;;;;;;;;;;;14.19;29.17;96755.78;5090863;28;20283;-81
2023/12/02 03:38:22;;;;;;;;;;;;;;;13.05;30.63;96762.66;5074635;28;19966;-81
2023/12/02 03:40:48;;;;;;;;;;;;;;;13.55;30.21;96754.38;5084371;28;19931;-81
2023/12/02 03:43:14;;;;;;;;;;;;;;;12.86;31.21;96767.75;5078470;28;20016;-81
2023/12/02 03:45:40;;;;;;;;;;;;;;;14.44;29.18;96767.56;5103759;28;20336;-81
2023/12/02 03:48:06;;;;;;;;;;;;;;;12.74;31.35;96771.63;5097476;28;19924;-81
2023/12/02 03:50:33;;;;;;;;;;;;;;;12.45;32.09;96767.22;5094020;28;19924;-81
2023/12/02 03:52:59;;;;;;;;;;;;;;;12.71;31.73;96763.38;5087072;28;19920;-81
2023/12/02 03:55:25;;;;;;;;;;;;;;;12.19;32.67;96767.53;5082100;28;20757;-81
2023/12/02 03:57:51;;;;;;;;;;;;;;;12.83;31.56;96777.56;5092610;28;19920;-81
2023/12/02 04:00:19;;;;;;;;;;;;;;;15.50;27.62;96771.59;5090432;28;20290;-81
2023/12/02 04:02:45;;;;;;;;;;;;;;;16.45;26.25;96762.31;5086814;28;19920;-81
2023/12/02 04:05:14;;;;;;;;;;;;;;;16.43;26.18;96750.84;5079602;28;19973;-81
2023/12/02 04:07:41;;;;;;;;;;;;;;;15.61;27.15;96745.41;5065356;28;19920;-81
2023/12/02 04:10:08;;;;;;;;;;;;;;;16.24;26.44;96746.72;5097664;28;19930;-81
2023/12/02 04:12:34;;;;;;;;;;;;;;;16.57;25.75;96745.16;5072710;28;19927;-80
2023/12/02 04:15:00;;;;;;;;;;;;;;;15.78;26.67;96741.69;5080389;28;19921;-81
2023/12/02 04:17:26;;;;;;;;;;;;;;;15.01;27.86;96740.38;5086611;28;19967;-81
2023/12/02 04:19:52;;;;;;;;;;;;;;;16.02;26.44;96737.09;5079561;28;20368;-81
2023/12/02 04:22:19;;;;;;;;;;;;;;;16.66;25.58;96741.88;5014806;28;2149023;-81
2023/12/02 04:24:45;;;;;;;;;;;;;;;17.14;24.87;96740.38;5098311;28;19927;-81
2023/12/02 04:27:12;;;;;;;;;;;;;;;16.61;25.34;96753.44;5083586;28;19999;-81
2023/12/02 04:29:41;;;;;;;;;;;;;;;17.18;24.53;96752.19;5110123;28;20387;-81
2023/12/02 04:32:10;;;;;;;;;;;;;;;17.51;24.54;96750.50;5096599;28;19927;-81
2023/12/02 04:34:36;;;;;;;;;;;;;;;17.29;24.49;96738.91;5073195;28;19923;-81
2023/12/02 04:37:03;;;;;;;;;;;;;;;16.11;25.96;96739.38;5095908;28;20455;-82
2023/12/02 04:39:29;;;;;;;;;;;;;;;14.79;27.89;96738.16;5081114;28;19920;-81
2023/12/02 04:41:55;;;;;;;;;;;;;;;14.58;28.27;96732.75;5082679;28;19920;-81
2023/12/02 04:44:21;;;;;;;;;;;;;;;14.66;28.08;96729.56;5089596;28;19997;-82
2023/12/02 04:46:47;;;;;;;;;;;;;;;15.40;27.34;96726.25;5079980;28;20417;-82
2023/12/02 04:49:13;;;;;;;;;;;;;;;14.62;28.31;96730.75;5105074;28;19916;-81
2023/12/02 04:51:39;;;;;;;;;;;;;;;16.50;25.75;96750.75;5099649;28;19920;-82
2023/12/02 04:54:05;;;;;;;;;;;;;;;18.13;23.59;96735.88;5089489;28;19930;-82
2023/12/02 04:56:31;;;;;;;;;;;;;;;17.66;23.88;96728.84;5098175;28;20015;-81
2023/12/02 04:58:58;;;;;;;;;;;;;;;16.49;25.41;96743.66;5088673;28;19935;-81
2023/12/02 05:01:24;;;;;;;;;;;;;;;17.31;24.36;96735.75;5073009;28;19920;-82
2023/12/02 05:03:50;;;;;;;;;;;;;;;16.61;25.41;96729.28;5073206;28;19978;-81
2023/12/02 05:06:17;;;;;;;;;;;;;;;16.16;25.99;96725.88;5085099;28;19924;-81
2023/12/02 05:08:44;;;;;;;;;;;;;;;15.11;27.05;96722.94;5090329;28;19927;-82
2023/12/02 05:11:18;;;;;;;;;;;;;;;14.70;28.06;96726.78;5091558;28;19920;-82
2023/12/02 05:13:45;;;;;;;;;;;;;;;16.58;25.41;96719.81;5082597;28;19935;-82
2023/12/02 05:16:11;;;;;;;;;;;;;;;16.35;25.73;96724.44;5088329;28;19935;-81
2023/12/02 05:18:39;;;;;;;;;;;;;;;15.47;26.73;96728.97;5086386;28;19959;-82
2023/12/02 05:21:05;;;;;;;;;;;;;;;17.34;24.53;96728.56;5093162;28;20020;-82
2023/12/02 05:23:31;;;;;;;;;;;;;;;18.70;22.83;96729.94;5098342;28;20054;-82
2023/12/02 05:25:57;;;;;;;;;;;;;;;18.98;22.10;96722.97;5103326;28;19927;-82
2023/12/02 05:28:24;;;;;;;;;;;;;;;19.24;21.68;96724.75;5116848;28;19946;-81
2023/12/02 05:30:50;;;;;;;;;;;;;;;17.81;23.47;96725.38;5094833;28;19916;-81
2023/12/02 05:33:17;;;;;;;;;;;;;;;16.86;24.77;96735.25;5103416;28;20525;-82
2023/12/02 05:35:43;;;;;;;;;;;;;;;14.74;27.20;96730.31;5080328;28;19919;-82
2023/12/02 05:38:09;;;;;;;;;;;;;;;15.71;26.45;96730.69;5111587;28;20005;-81
2023/12/02 05:40:35;;;;;;;;;;;;;;;13.68;28.98;96726.00;5090486;28;19926;-82
2023/12/02 05:43:01;;;;;;;;;;;;;;;11.57;32.67;96728.28;5102949;28;19927;-82
2023/12/02 05:45:27;;;;;;;;;;;;;;;12.23;31.87;96729.78;5084646;28;19985;-83
2023/12/02 05:47:53;;;;;;;;;;;;;;;13.68;29.25;96725.19;5094538;28;19927;-82
2023/12/02 05:50:19;;;;;;;;;;;;;;;13.75;29.04;96719.66;5087708;28;19921;-82
2023/12/02 05:52:46;;;;;;;;;;;;;;;13.82;29.21;96716.88;5078064;28;19929;-82
2023/12/02 05:55:12;;;;;;;;;;;;;;;14.52;27.89;96724.91;5088899;28;20011;-81
2023/12/02 05:57:38;;;;;;;;;;;;;;;13.66;29.34;96717.31;5090544;28;19973;-81
2023/12/02 06:00:05;;;;;;;;;;;;;;;15.53;26.61;96721.81;5092295;28;19920;-82
2023/12/02 06:02:31;;;;;;;;;;;;;;;16.36;25.53;96721.25;5075055;28;19927;-82
2023/12/02 06:04:57;;;;;;;;;;;;;;;16.52;24.86;96715.91;5088830;28;20287;-82
2023/12/02 06:07:23;;;;;;;;;;;;;;;15.92;25.50;96704.03;5088566;28;20006;-82
2023/12/02 06:09:49;;;;;;;;;;;;;;;15.47;26.21;96692.22;5096423;28;19981;-82
2023/12/02 06:12:15;;;;;;;;;;;;;;;13.69;29.02;96696.44;5101936;28;19971;-83
2023/12/02 06:14:41;;;;;;;;;;;;;;;14.87;27.67;96693.50;5082511;28;19920;-83
2023/12/02 06:17:08;;;;;;;;;;;;;;;16.04;25.61;96701.47;5088834;28;19916;-83
2023/12/02 06:19:34;;;;;;;;;;;;;;;15.87;25.76;96697.72;5083488;28;20022;-83
2023/12/02 06:22:01;;;;;;;;;;;;;;;15.41;26.40;96682.75;5083653;28;19927;-81
2023/12/02 06:24:27;;;;;;;;;;;;;;;15.31;26.30;96687.19;5091321;28;19932;-81
2023/12/02 06:26:53;;;;;;;;;;;;;;;15.66;26.16;96695.19;5095457;28;19916;-83
2023/12/02 06:29:19;;;;;;;;;;;;;;;17.55;23.79;96692.94;5086352;28;20398;-83
2023/12/02 06:31:48;;;;;;;;;;;;;;;15.87;25.38;96689.41;5095273;28;19928;-85
2023/12/02 06:34:14;;;;;;;;;;;;;;;15.42;26.33;96679.59;5092641;28;20056;-84
2023/12/02 06:36:40;;;;;;;;;;;;;;;14.84;27.04;96672.19;5094460;28;19923;-84
2023/12/02 06:39:07;;;;;;;;;;;;;;;14.50;27.20;96672.06;5097428;28;19916;-84
2023/12/02 06:41:33;;;;;;;;;;;;;;;15.54;26.26;96679.09;5088695;28;19928;-84
2023/12/02 06:44:00;;;;;;;;;;;;;;;12.60;30.31;96689.03;5092559;28;19989;-84
2023/12/02 06:46:26;;;;;;;;;;;;;;;13.21;29.50;96704.38;5088896;28;19920;-83
2023/12/02 06:48:52;;;;;;;;;;;;;;;15.67;25.65;96698.75;5085719;28;20280;-83
2023/12/02 06:51:19;;;;;;;;;;;;;;;15.96;25.32;96696.44;5089428;28;19931;-83
2023/12/02 06:53:45;;;;;;;;;;;;;;;16.10;25.29;96690.75;5089614;28;19925;-83
2023/12/02 06:56:18;;;;;;;;;;;;;;;16.16;25.13;96694.63;5087757;28;19975;-82
2023/12/02 06:58:44;;;;;;;;;;;;;;;15.99;25.10;96696.41;5086019;28;19920;-83
2023/12/02 07:01:10;;;;;;;;;;;;;;;16.33;24.65;96690.84;5086917;28;19928;-83
2023/12/02 07:03:39;;;;;;;;;;;;;;;14.37;27.16;96687.53;5090104;28;20030;-84
2023/12/02 07:06:05;;;;;;;;;;;;;;;12.66;30.03;96687.44;5096778;28;19964;-83
2023/12/02 07:08:31;;;;;;;;;;;;;;;12.98;29.48;96682.72;5093382;28;20480;-83
2023/12/02 07:10:57;;;;;;;;;;;;;;;11.62;31.73;96665.47;5088976;28;19920;-83
2023/12/02 07:13:23;;;;;;;;;;;;;;;11.99;31.30;96672.75;5085352;28;20087;-83
2023/12/02 07:15:49;;;;;;;;;;;;;;;11.65;31.64;96691.41;5089339;28;19927;-83
2023/12/02 07:18:15;;;;;;;;;;;;;;;12.99;29.93;96680.78;5084843;28;20445;-83
2023/12/02 07:20:41;;;;;;;;;;;;;;;12.14;30.92;96683.41;5071158;28;19928;-83
2023/12/02 07:23:07;;;;;;;;;;;;;;;14.08;27.96;96672.25;5087135;28;19924;-83
2023/12/02 07:25:33;;;;;;;;;;;;;;;14.83;27.27;96661.56;5088521;28;20410;-83
2023/12/02 07:28:00;;;;;;;;;;;;;;;12.13;31.10;96668.09;5088177;28;19927;-83
2023/12/02 07:30:26;;;;;;;;;;;;;;;12.54;30.45;96684.28;5089141;28;20014;-83
2023/12/02 07:32:52;;;;;;;;;;;;;;;12.85;30.12;96695.34;5083562;28;19920;-83
2023/12/02 07:35:18;;;;;;;;;;;;;;;14.72;27.15;96696.78;5081505;28;20273;-83
2023/12/02 07:37:47;;;;;;;;;;;;;;;15.56;25.60;96701.63;5089375;28;20011;-83
2023/12/02 07:40:13;;;;;;;;;;;;;;;14.98;26.65;96698.97;5085639;28;19967;-83
2023/12/02 07:42:39;;;;;;;;;;;;;;;13.91;28.05;96692.41;5087566;28;20375;-83
2023/12/02 07:45:05;;;;;;;;;;;;;;;13.33;29.30;96692.16;5081216;28;19932;-84
2023/12/02 07:47:31;;;;;;;;;;;;;;;15.72;25.72;96712.91;5085771;28;19974;-83
2023/12/02 07:49:58;;;;;;;;;;;;;;;16.96;23.84;96722.44;5089448;28;19964;-84
2023/12/02 07:52:24;;;;;;;;;;;;;;;17.80;22.71;96725.81;5083491;28;20375;-82
2023/12/02 07:54:50;;;;;;;;;;;;;;;18.91;21.79;96732.25;5084473;28;19921;-83
2023/12/02 07:57:16;;;;;;;;;;;;;;;19.10;21.56;96727.84;5085614;28;19955;-83
2023/12/02 07:59:42;;;;;;;;;;;;;;;18.41;22.20;96724.19;5085422;28;20372;-82
2023/12/02 08:02:08;;;;;;;;;;;;;;;15.38;25.84;96727.84;5093716;28;19928;-82
2023/12/02 08:04:34;;;;;;;;;;;;;;;16.28;25.18;96727.31;5086506;28;20288;-82
2023/12/02 08:07:00;;;;;;;;;;;;;;;17.58;23.02;96733.72;5087850;28;19928;-82
2023/12/02 08:09:26;;;;;;;;;;;;;;;16.28;24.42;96727.31;5079968;28;20023;-82
2023/12/02 08:11:52;;;;;;;;;;;;;;;16.92;23.76;96728.03;5093330;28;19927;-83
2023/12/02 08:14:19;;;;;;;;;;;;;;;15.90;25.13;96721.03;5090148;28;19966;-82
2023/12/02 08:16:45;;;;;;;;;;;;;;;14.31;27.23;96725.00;5088504;28;19920;-83
2023/12/02 08:19:11;;;;;;;;;;;;;;;14.78;26.90;96717.25;5085649;28;19920;-83
2023/12/02 08:21:37;;;;;;;;;;;;;;;14.56;27.22;96713.06;5082425;28;20292;-83
2023/12/02 08:24:03;;;;;;;;;;;;;;;16.00;25.59;96717.34;5085256;28;19931;-82
2023/12/02 08:26:29;;;;;;;;;;;;;;;17.88;23.02;96718.91;5087663;28;19921;-82
2023/12/02 08:28:55;;;;;;;;;;;;;;;17.32;23.50;96717.13;5086343;28;19924;-82
2023/12/02 08:31:21;;;;;;;;;;;;;;;14.17;27.48;96729.75;5085715;28;19923;-84
2023/12/02 08:33:48;;;;;;;;;;;;;;;15.37;25.84;96735.34;5088685;28;19916;-84
2023/12/02 08:36:14;;;;;;;;;;;;;;;12.73;29.61;96730.72;5088329;28;20007;-84
2023/12/02 08:38:40;;;;;;;;;;;;;;;9.84;34.71;96732.13;5075524;28;19921;-84
2023/12/02 08:41:06;;;;;;;;;;;;;;;11.30;32.85;96721.44;5084667;28;20364;-84
2023/12/02 08:43:33;;;;;;;;;;;;;;;14.96;27.08;96723.44;5089499;28;19920;-84
2023/12/02 08:45:59;;;;;;;;;;;;;;;13.50;28.62;96728.00;5085345;28;19913;-84
2023/12/02 08:48:25;;;;;;;;;;;;;;;15.37;25.98;96712.44;5088074;28;19935;-83
2023/12/02 08:50:51;;;;;;;;;;;;;;;12.46;31.15;96722.78;5087064;28;19920;-83
2023/12/02 08:53:18;;;;;;;;;;;;;;;12.63;29.95;96714.97;5082328;28;20391;-83
2023/12/02 08:55:44;;;;;;;;;;;;;;;14.21;27.64;96700.19;5081431;28;19959;-83
2023/12/02 08:58:10;;;;;;;;;;;;;;;14.21;27.33;96703.72;5090426;28;19920;-83
2023/12/02 09:00:36;;;;;;;;;;;;;;;16.17;25.17;96708.06;5093263;28;19922;-84
2023/12/02 09:03:03;;;;;;;;;;;;;;;16.96;23.93;96716.91;5090295;28;19931;-83
2023/12/02 09:05:30;;;;;;;;;;;;;;;17.40;23.62;96710.22;5090154;28;19926;-84
2023/12/02 09:07:59;;;;;;;;;;;;;;;17.66;22.90;96706.63;5086830;28;19946;-85
2023/12/02 09:10:25;;;;;;;;;;;;;;;16.68;24.38;96715.31;5088934;28;19939;-84
2023/12/02 09:12:51;;;;;;;;;;;;;;;18.25;22.60;96718.56;5088363;28;19920;-84
2023/12/02 09:15:18;;;;;;;;;;;;;;;18.74;21.70;96708.41;5093730;28;19970;-84
2023/12/02 09:17:44;;;;;;;;;;;;;;;18.61;21.67;96713.06;5094807;28;20002;-84
2023/12/02 09:20:25;;;;;;;;;;;;;;;15.36;25.99;96724.69;5094809;28;19951;-83
2023/12/02 09:22:51;;;;;;;;;;;;;;;14.93;26.55;96715.97;5094645;28;19931;-83
2023/12/02 09:25:23;;;;;;;;;;;;;;;17.92;23.22;96719.63;5091769;28;19955;-83
2023/12/02 09:28:09;;;;;;;;;;;;;;;19.41;21.40;96703.28;5094863;28;19967;-83
2023/12/02 09:30:36;;;;;;;;;;;;;;;17.04;23.68;96696.16;5098381;28;20278;-83
2023/12/02 09:33:06;;;;;;;;;;;;;;;16.64;24.38;96711.78;5093209;28;19973;-83
2023/12/02 09:35:32;;;;;;;;;;;;;;;19.05;22.06;96697.78;5093456;28;20394;-84
2023/12/02 09:38:00;;;;;;;;;;;;;;;20.26;20.10;96699.03;5094327;28;19919;-84
2023/12/02 09:40:44;;;;;;;;;;;;;;;19.03;21.34;96711.34;5094730;28;20366;-84
2023/12/02 09:43:27;;;;;;;;;;;;;;;17.48;23.06;96712.44;5094544;28;19926;-83
2023/12/02 09:46:11;;;;;;;;;;;;;;;16.33;24.50;96699.94;5091864;28;19928;-83
2023/12/02 09:48:58;;;;;;;;;;;;;;;14.65;27.21;96710.63;5093284;28;20342;-83
2023/12/02 09:51:33;;;;;;;;;;;;;;;15.35;26.15;96717.59;5093243;28;20368;-83
2023/12/02 09:54:02;;;;;;;;;;;;;;;16.28;25.13;96705.16;5086710;28;19952;-83
2023/12/02 09:56:30;;;;;;;;;;;;;;;14.82;26.96;96695.91;5089263;28;20538;-83
2023/12/02 09:59:18;;;;;;;;;;;;;;;16.84;24.59;96698.84;5086073;28;20366;-83
2023/12/02 10:01:53;;;;;;;;;;;;;;;14.46;27.70;96695.34;5090330;28;19927;-84
2023/12/02 10:04:35;;;;;;;;;;;;;;;16.95;24.88;96705.00;5091970;28;19920;-83
2023/12/02 10:07:02;;;;;;;;;;;;;;;16.07;26.00;96708.19;5083647;28;19927;-84
2023/12/02 10:09:32;;;;;;;;;;;;;;;15.65;26.48;96701.13;5090484;28;20343;-84
2023/12/02 10:11:58;;;;;;;;;;;;;;;15.09;26.71;96686.63;5088145;28;19943;-84
2023/12/02 10:14:25;;;;;;;;;;;;;;;17.66;24.35;96684.44;5083754;28;19917;-83
2023/12/02 10:16:53;;;;;;;;;;;;;;;16.94;24.42;96667.41;5081081;28;20292;-84
2023/12/02 10:19:23;;;;;;;;;;;;;;;16.97;24.60;96649.13;5082817;28;19964;-84
2023/12/02 10:21:53;;;;;;;;;;;;;;;14.33;27.81;96666.63;5086320;28;19920;-84
2023/12/02 10:24:24;;;;;;;;;;;;;;;17.30;24.13;96656.50;5084129;28;19939;-84
2023/12/02 10:26:58;;;;;;;;;;;;;;;15.57;26.12;96664.44;5089147;28;20372;-83
2023/12/02 10:29:44;;;;;;;;;;;;;;;16.94;24.47;96650.00;5083252;28;19920;-83
2023/12/02 10:32:10;;;;;;;;;;;;;;;16.40;25.00;96640.91;5084295;28;19966;-84
2023/12/02 10:34:45;;;;;;;;;;;;;;;15.42;26.30;96629.84;5074528;28;19920;-84
2023/12/02 10:37:13;;;;;;;;;;;;;;;16.08;25.69;96635.00;5068138;28;20376;-83
2023/12/02 10:39:41;;;;;;;;;;;;;;;16.00;25.71;96645.38;5084227;28;19924;-84
2023/12/02 10:42:09;;;;;;;;;;;;;;;16.80;24.71;96651.00;5091104;28;19927;-83
2023/12/02 10:44:35;;;;;;;;;;;;;;;16.77;24.60;96640.75;5083544;28;19963;-83
2023/12/02 10:47:03;;;;;;;;;;;;;;;15.11;26.62;96651.06;5094059;28;19919;-84
2023/12/02 10:49:30;;;;;;;;;;;;;;;16.51;25.05;96660.94;5076816;28;19986;-84
2023/12/02 10:51:58;;;;;;;;;;;;;;;15.42;26.47;96651.16;5084385;28;20010;-84
2023/12/02 10:54:27;;;;;;;;;;;;;;;13.32;29.59;96655.59;5086256;28;19924;-83
2023/12/02 10:57:05;;;;;;;;;;;;;;;12.76;30.87;96655.59;5090497;28;20019;-83
2023/12/02 10:59:33;;;;;;;;;;;;;;;14.66;27.83;96643.13;5060283;28;19916;-84
2023/12/02 11:02:17;;;;;;;;;;;;;;;14.71;27.58;96640.72;5085933;28;19921;-83
2023/12/02 11:04:46;;;;;;;;;;;;;;;12.32;31.41;96642.19;5084379;28;19920;-83
2023/12/02 11:07:14;;;;;;;;;;;;;;;11.84;32.67;96655.41;5089830;28;20436;-83
2023/12/02 11:09:49;;;;;;;;;;;;;;;13.12;29.98;96655.22;5081668;28;20094;-87
2023/12/02 11:12:15;;;;;;;;;;;;;;;14.85;27.58;96651.69;5086004;28;19931;-83
2023/12/02 11:14:42;;;;;;;;;;;;;;;15.74;26.49;96651.63;5083247;28;19920;-83
2023/12/02 11:17:17;;;;;;;;;;;;;;;16.21;25.89;96650.66;5085855;28;20014;-83
2023/12/02 11:19:49;;;;;;;;;;;;;;;12.37;30.80;96652.78;5087748;28;20414;-83
2023/12/02 11:22:15;;;;;;;;;;;;;;;11.58;33.00;96656.44;5084554;28;20404;-84
2023/12/02 11:24:50;;;;;;;;;;;;;;;11.49;32.90;96647.75;5081160;28;20341;-83
2023/12/02 11:27:24;;;;;;;;;;;;;;;10.97;34.37;96648.22;5083068;28;19997;-84
2023/12/02 11:29:59;;;;;;;;;;;;;;;11.21;34.24;96639.38;5082855;28;19928;-82
2023/12/02 11:32:48;;;;;;;;;;;;;;;11.03;33.90;96643.97;5080324;28;19921;-83
2023/12/02 11:35:17;;;;;;;;;;;;;;;11.18;33.84;96648.38;5083073;28;19974;-82
2023/12/02 11:37:43;;;;;;;;;;;;;;;11.85;33.17;96650.69;5068648;28;20049;-83
2023/12/02 11:40:15;;;;;;;;;;;;;;;13.56;30.15;96645.69;5086201;28;19939;-83
2023/12/02 11:43:04;;;;;;;;;;;;;;;12.46;31.90;96653.22;5086052;28;19920;-83
2023/12/02 11:45:37;;;;;;;;;;;;;;;13.85;29.87;96645.16;5042674;28;19955;-83
2023/12/02 11:48:11;;;;;;;;;;;;;;;14.35;28.52;96648.47;5084737;28;19928;-83
2023/12/02 11:50:40;;;;;;;;;;;;;;;12.22;32.53;96649.25;5083508;28;19981;-83
2023/12/02 11:53:12;;;;;;;;;;;;;;;13.86;29.67;96637.69;5082964;28;19931;-83
2023/12/02 11:55:38;;;;;;;;;;;;;;;12.24;32.09;96641.38;5087710;28;19928;-82
2023/12/02 11:58:22;;;;;;;;;;;;;;;11.20;33.75;96640.56;5089062;28;19996;-82
2023/12/02 12:01:14;;;;;;;;;;;;;;;11.99;33.28;96642.50;5086501;28;20332;-82
2023/12/02 12:03:41;;;;;;;;;;;;;;;11.07;35.02;96637.31;5060277;28;20368;-82
2023/12/02 12:06:13;;;;;;;;;;;;;;;11.77;33.40;96625.94;5084959;28;19953;-83
2023/12/02 12:08:49;;;;;;;;;;;;;;;12.69;33.59;96628.06;5079662;28;19924;-83
2023/12/02 12:11:16;;;;;;;;;;;;;;;13.12;30.86;96635.13;5084666;28;19927;-84
2023/12/02 12:13:45;;;;;;;;;;;;;;;13.86;29.80;96640.44;5066838;28;19927;-83
2023/12/02 12:16:11;;;;;;;;;;;;;;;14.22;29.25;96646.56;5085484;28;19999;-84
2023/12/02 12:18:37;;;;;;;;;;;;;;;13.94;29.63;96638.41;5086708;28;19968;-81
2023/12/02 12:21:03;;;;;;;;;;;;;;;15.47;27.29;96634.94;5082851;28;19920;-80
2023/12/02 12:23:31;;;;;;;;;;;;;;;14.23;29.05;96643.41;5082423;28;20399;-81
2023/12/02 12:25:58;;;;;;;;;;;;;;;14.49;28.59;96639.34;5084064;28;19920;-80
2023/12/02 12:28:25;;;;;;;;;;;;;;;13.08;30.80;96646.16;5084342;28;19947;-80
2023/12/02 12:30:51;;;;;;;;;;;;;;;13.56;30.20;96649.19;5084159;28;19961;-81
2023/12/02 12:33:18;;;;;;;;;;;;;;;11.37;33.82;96650.84;5090551;28;19931;-81
2023/12/02 12:35:44;;;;;;;;;;;;;;;10.63;35.18;96649.53;5091636;28;20057;-80
2023/12/02 12:38:10;;;;;;;;;;;;;;;9.83;36.63;96656.53;5088920;28;19925;-81
2023/12/02 12:40:37;;;;;;;;;;;;;;;10.78;35.22;96649.25;5089463;28;19931;-81
2023/12/02 12:43:03;;;;;;;;;;;;;;;11.41;34.23;96654.38;5087240;28;20007;-80
2023/12/02 12:45:33;;;;;;;;;;;;;;;11.72;33.37;96647.50;5085373;28;19955;-82
2023/12/02 12:48:00;;;;;;;;;;;;;;;11.32;33.98;96655.94;5090197;28;19924;-80
2023/12/02 12:50:30;;;;;;;;;;;;;;;11.20;34.36;96657.03;5091939;28;19968;-80